createdAt,value
2023-04-14T00:00:01.263Z,49.75
2023-04-14T00:02:29.080Z,49.77
2023-04-14T00:04:56.771Z,49.68
2023-04-14T00:07:24.253Z,49.64
2023-04-14T00:09:51.476Z,49.67
2023-04-14T00:12:18.955Z,49.58
2023-04-14T00:14:46.400Z,49.68
2023-04-14T00:17:16.996Z,49.72
2023-04-14T00:19:44.356Z,49.58
2023-04-14T00:22:11.826Z,49.69
2023-04-14T00:24:43.425Z,49.61
2023-04-14T00:27:11.176Z,49.68
2023-04-14T00:29:39.229Z,49.46
2023-04-14T00:32:07.249Z,49.56
2023-04-14T00:34:34.731Z,49.49
2023-04-14T00:37:02.225Z,49.45
2023-04-14T00:39:29.551Z,49.48
2023-04-14T00:41:57.172Z,49.58
2023-04-14T00:44:25.393Z,49.62
2023-04-14T00:46:53.038Z,49.53
2023-04-14T00:49:20.382Z,49.52
2023-04-14T00:51:48.189Z,49.54
2023-04-14T00:54:18.749Z,49.58
2023-04-14T00:56:47.505Z,49.45
2023-04-14T00:59:17.002Z,49.57
2023-04-14T01:01:44.812Z,49.49
2023-04-14T01:04:13.002Z,49.46
2023-04-14T01:06:41.151Z,49.48
2023-04-14T01:09:09.282Z,49.59
2023-04-14T01:11:43.962Z,49.65
2023-04-14T01:14:42.471Z,49.58
2023-04-14T01:17:37.451Z,49.42
2023-04-14T01:20:33.133Z,49.61
2023-04-14T01:23:08.233Z,49.38
2023-04-14T01:26:02.670Z,49.50
2023-04-14T01:28:52.841Z,49.54
2023-04-14T01:31:47.484Z,49.62
2023-04-14T01:34:39.305Z,49.53
2023-04-14T01:37:13.684Z,49.56
2023-04-14T01:39:45.452Z,49.33
2023-04-14T01:42:17.635Z,49.46
2023-04-14T01:44:48.596Z,49.71
2023-04-14T01:47:19.966Z,49.43
2023-04-14T01:49:51.558Z,49.39
2023-04-14T01:52:19.698Z,49.50
2023-04-14T01:54:52.318Z,49.42
2023-04-14T01:57:22.813Z,49.53
2023-04-14T01:59:54.960Z,49.40
2023-04-14T02:02:24.654Z,49.54
2023-04-14T02:04:53.694Z,49.50
2023-04-14T02:07:22.011Z,49.62
2023-04-14T02:09:50.709Z,49.39
2023-04-14T02:12:19.561Z,49.36
2023-04-14T02:14:47.820Z,49.61
2023-04-14T02:17:17.294Z,49.52
2023-04-14T02:19:46.300Z,49.52
2023-04-14T02:22:14.311Z,49.46
2023-04-14T02:24:41.846Z,49.43
2023-04-14T02:27:11.709Z,49.46
2023-04-14T02:29:42.550Z,49.54
2023-04-14T02:32:17.408Z,49.50
2023-04-14T02:34:54.307Z,49.47
2023-04-14T02:37:25.748Z,49.64
2023-04-14T02:40:03.336Z,49.50
2023-04-14T02:42:33.835Z,49.38
2023-04-14T02:45:06.792Z,49.41
2023-04-14T02:47:37.474Z,49.45
2023-04-14T02:50:07.384Z,49.50
2023-04-14T02:52:36.414Z,49.38
2023-04-14T02:55:06.211Z,49.43
2023-04-14T02:57:34.281Z,49.44
2023-04-14T03:00:03.578Z,49.53
2023-04-14T03:02:31.734Z,49.30
2023-04-14T03:05:00.696Z,49.47
2023-04-14T03:07:28.699Z,49.46
2023-04-14T03:09:57.127Z,49.43
2023-04-14T03:12:26.091Z,49.28
2023-04-14T03:14:57.411Z,49.30
2023-04-14T03:17:26.162Z,49.35
2023-04-14T03:19:54.221Z,49.42
2023-04-14T03:22:23.340Z,49.27
2023-04-14T03:24:51.247Z,49.33
2023-04-14T03:27:26.214Z,49.28
2023-04-14T03:29:58.440Z,49.30
2023-04-14T03:32:29.148Z,49.34
2023-04-14T03:34:59.016Z,49.31
2023-04-14T03:37:27.929Z,49.41
2023-04-14T03:40:00.471Z,49.34
2023-04-14T03:42:29.388Z,49.30
2023-04-14T03:44:58.564Z,49.24
2023-04-14T03:47:28.666Z,49.31
2023-04-14T03:50:02.795Z,49.45
2023-04-14T03:52:34.208Z,49.33
2023-04-14T03:55:06.377Z,49.41
2023-04-14T03:57:35.043Z,49.48
2023-04-14T04:00:05.378Z,49.25
2023-04-14T04:02:33.432Z,49.38
2023-04-14T04:05:01.992Z,49.26
2023-04-14T04:07:32.502Z,49.37
2023-04-14T04:10:00.532Z,49.28
2023-04-14T04:12:30.645Z,49.31
2023-04-14T04:14:58.304Z,49.21
2023-04-14T04:17:29.894Z,49.26
2023-04-14T04:20:00.295Z,49.36
2023-04-14T04:22:28.718Z,49.27
2023-04-14T04:24:57.814Z,49.24
2023-04-14T04:27:28.081Z,49.32
2023-04-14T04:29:56.392Z,49.33
2023-04-14T04:32:23.844Z,49.31
2023-04-14T04:34:53.338Z,49.23
2023-04-14T04:37:21.825Z,49.21
2023-04-14T04:39:49.474Z,49.15
2023-04-14T04:42:16.871Z,49.45
2023-04-14T04:44:44.416Z,49.34
2023-04-14T04:47:13.270Z,49.19
2023-04-14T04:49:40.974Z,49.31
2023-04-14T04:52:08.336Z,49.32
2023-04-14T04:54:35.883Z,49.21
2023-04-14T04:57:03.612Z,49.29
2023-04-14T04:59:31.144Z,49.34
2023-04-14T05:01:59.050Z,49.23
2023-04-14T05:04:26.646Z,49.28
2023-04-14T05:06:53.839Z,49.24
2023-04-14T05:09:21.408Z,48.97
2023-04-14T05:11:48.661Z,49.09
2023-04-14T05:14:16.236Z,48.83
2023-04-14T05:16:43.416Z,48.99
2023-04-14T05:19:10.999Z,49.13
2023-04-14T05:21:38.392Z,48.95
2023-04-14T05:24:09.062Z,48.94
2023-04-14T05:26:57.813Z,49.00
2023-04-14T05:29:23.675Z,48.81
2023-04-14T05:31:50.888Z,48.98
2023-04-14T05:34:19.107Z,49.02
2023-04-14T05:36:46.572Z,48.94
2023-04-14T05:39:14.451Z,48.99
2023-04-14T05:41:41.787Z,49.03
2023-04-14T05:44:09.264Z,48.92
2023-04-14T05:46:36.536Z,48.98
2023-04-14T05:49:04.955Z,48.77
2023-04-14T05:51:32.961Z,48.98
2023-04-14T05:54:00.956Z,48.89
2023-04-14T05:56:28.740Z,48.81
2023-04-14T05:58:56.392Z,48.75
2023-04-14T06:01:23.674Z,48.80
2023-04-14T06:03:51.385Z,48.86
2023-04-14T06:06:20.103Z,48.62
2023-04-14T06:08:47.631Z,48.78
2023-04-14T06:11:14.917Z,48.66
2023-04-14T06:13:43.112Z,48.66
2023-04-14T06:16:10.966Z,48.55
2023-04-14T06:18:38.492Z,48.61
2023-04-14T06:21:05.991Z,48.73
2023-04-14T06:23:33.544Z,48.67
2023-04-14T06:26:00.834Z,48.71
2023-04-14T06:28:28.422Z,48.65
2023-04-14T06:30:55.635Z,48.74
2023-04-14T06:33:23.873Z,48.53
2023-04-14T06:35:51.349Z,48.54
2023-04-14T06:38:19.350Z,48.68
2023-04-14T06:40:46.678Z,48.62
2023-04-14T06:43:14.972Z,48.67
2023-04-14T06:45:42.277Z,49.06
2023-04-14T06:48:11.475Z,49.13
2023-04-14T06:50:38.869Z,49.30
2023-04-14T06:53:07.125Z,49.53
2023-04-14T06:55:36.136Z,49.40
2023-04-14T06:58:03.800Z,49.47
2023-04-14T07:00:31.560Z,49.54
2023-04-14T07:02:59.408Z,49.51
2023-04-14T07:05:27.098Z,49.50
2023-04-14T07:07:54.584Z,49.74
2023-04-14T07:10:22.796Z,49.69
2023-04-14T07:12:50.400Z,49.66
2023-04-14T07:15:17.876Z,49.75
2023-04-14T07:17:45.939Z,49.72
2023-04-14T07:20:13.434Z,49.74
2023-04-14T07:22:40.950Z,49.85
2023-04-14T07:25:08.552Z,49.66
2023-04-14T07:27:36.224Z,49.67
2023-04-14T07:30:03.809Z,49.61
2023-04-14T07:32:31.656Z,49.76
2023-04-14T07:34:59.482Z,49.87
2023-04-14T07:37:26.997Z,49.88
2023-04-14T07:39:54.298Z,49.64
2023-04-14T07:42:21.947Z,49.69
2023-04-14T07:44:49.187Z,49.61
2023-04-14T07:47:16.993Z,49.84
2023-04-14T07:49:44.232Z,49.77
2023-04-14T07:52:12.548Z,49.77
2023-04-14T07:54:39.799Z,49.84
2023-04-14T07:57:09.987Z,49.93
2023-04-14T07:59:38.281Z,49.79
2023-04-14T08:02:06.022Z,49.89
2023-04-14T08:04:33.569Z,49.91
2023-04-14T08:07:01.483Z,49.78
2023-04-14T08:09:28.784Z,49.69
2023-04-14T08:11:57.298Z,49.82
2023-04-14T08:14:24.732Z,49.56
2023-04-14T08:16:52.365Z,49.78
2023-04-14T08:19:20.893Z,49.64
2023-04-14T08:21:48.364Z,49.68
2023-04-14T08:24:15.729Z,49.68
2023-04-14T08:26:43.314Z,49.64
2023-04-14T08:29:11.109Z,49.80
2023-04-14T08:31:38.664Z,52.18
2023-04-14T08:34:06.113Z,52.46
2023-04-14T08:36:33.665Z,52.18
2023-04-14T08:39:01.272Z,51.14
2023-04-14T08:41:33.716Z,50.66
2023-04-14T08:44:01.665Z,50.44
2023-04-14T08:46:31.165Z,50.27
2023-04-14T08:49:12.339Z,50.03
2023-04-14T08:51:43.127Z,50.01
2023-04-14T08:54:11.833Z,49.89
2023-04-14T08:56:41.836Z,49.79
2023-04-14T08:59:11.539Z,49.71
2023-04-14T09:01:39.407Z,49.58
2023-04-14T09:04:07.675Z,49.62
2023-04-14T09:06:36.390Z,49.53
2023-04-14T09:09:07.643Z,49.29
2023-04-14T09:11:35.265Z,49.28
2023-04-14T09:14:04.072Z,49.28
2023-04-14T09:16:32.746Z,49.30
2023-04-14T09:19:07.011Z,49.05
2023-04-14T09:21:53.382Z,49.02
2023-04-14T09:24:31.771Z,48.99
2023-04-14T09:27:06.061Z,48.84
2023-04-14T09:29:33.603Z,49.00
2023-04-14T09:32:01.430Z,49.05
2023-04-14T09:34:28.783Z,48.97
2023-04-14T09:37:07.897Z,49.04
2023-04-14T09:39:36.655Z,49.04
2023-04-14T09:42:04.537Z,48.90
2023-04-14T09:44:31.863Z,48.98
2023-04-14T09:47:06.597Z,48.76
2023-04-14T09:49:34.375Z,48.87
2023-04-14T09:52:09.224Z,48.83
2023-04-14T09:54:36.601Z,48.83
2023-04-14T09:57:04.503Z,48.83
2023-04-14T09:59:37.648Z,48.87
2023-04-14T10:02:09.982Z,48.87
2023-04-14T10:04:38.167Z,48.97
2023-04-14T10:07:12.086Z,48.64
2023-04-14T10:09:40.667Z,48.63
2023-04-14T10:12:12.555Z,48.90
2023-04-14T10:14:41.369Z,48.82
2023-04-14T10:17:09.366Z,48.78
2023-04-14T10:19:37.738Z,48.63
2023-04-14T10:22:06.147Z,48.73
2023-04-14T10:24:34.722Z,48.64
2023-04-14T10:27:03.426Z,48.61
2023-04-14T10:29:31.083Z,48.83
2023-04-14T10:32:05.447Z,48.59
2023-04-14T10:34:34.337Z,48.62
2023-04-14T10:37:28.278Z,48.52
2023-04-14T10:39:56.929Z,48.59
2023-04-14T10:42:25.118Z,48.51
2023-04-14T10:45:06.765Z,48.68
2023-04-14T10:47:39.774Z,48.48
2023-04-14T10:50:12.568Z,48.45
2023-04-14T10:52:50.627Z,48.45
2023-04-14T10:55:21.984Z,48.59
2023-04-14T10:57:49.623Z,48.45
2023-04-14T11:00:19.648Z,48.59
2023-04-14T11:03:12.115Z,48.54
2023-04-14T11:05:52.566Z,48.50
2023-04-14T11:08:27.875Z,48.51
2023-04-14T11:11:02.934Z,48.59
2023-04-14T11:13:31.727Z,48.51
2023-04-14T11:16:09.306Z,48.54
2023-04-14T11:18:38.618Z,48.58
2023-04-14T11:21:11.969Z,48.53
2023-04-14T11:23:40.858Z,48.52
2023-04-14T11:26:09.762Z,48.39
2023-04-14T11:28:39.333Z,48.39
2023-04-14T11:31:08.832Z,48.20
2023-04-14T11:33:38.338Z,48.28
2023-04-14T11:36:07.428Z,48.11
2023-04-14T11:38:40.196Z,48.27
2023-04-14T11:41:08.486Z,48.20
2023-04-14T11:43:37.948Z,48.16
2023-04-14T11:46:08.066Z,48.02
2023-04-14T11:48:35.610Z,48.04
2023-04-14T11:51:03.998Z,48.02
2023-04-14T11:53:33.085Z,48.00
2023-04-14T11:56:01.358Z,47.96
2023-04-14T11:58:29.315Z,47.89
2023-04-14T12:00:59.507Z,48.09
2023-04-14T12:03:31.660Z,47.85
2023-04-14T12:06:00.699Z,47.93
2023-04-14T12:08:33.083Z,47.94
2023-04-14T12:11:14.649Z,47.80
2023-04-14T12:13:43.341Z,47.85
2023-04-14T12:16:12.045Z,47.86
2023-04-14T12:18:39.786Z,47.99
2023-04-14T12:21:09.887Z,47.74
2023-04-14T12:23:40.629Z,47.82
2023-04-14T12:26:12.117Z,47.68
2023-04-14T12:28:41.550Z,47.70
2023-04-14T12:31:10.428Z,47.68
2023-04-14T12:33:38.658Z,47.84
2023-04-14T12:36:13.131Z,47.48
2023-04-14T12:38:41.433Z,47.63
2023-04-14T12:41:08.999Z,47.66
2023-04-14T12:43:38.463Z,47.60
2023-04-14T12:46:06.277Z,47.74
2023-04-14T12:48:43.651Z,47.59
2023-04-14T12:51:13.037Z,47.58
2023-04-14T12:53:42.474Z,47.43
2023-04-14T12:56:16.327Z,47.37
2023-04-14T12:58:48.409Z,47.35
2023-04-14T13:01:18.924Z,47.40
2023-04-14T13:03:50.489Z,47.36
2023-04-14T13:06:19.810Z,47.49
2023-04-14T13:08:49.354Z,47.51
2023-04-14T13:11:17.982Z,47.49
2023-04-14T13:13:45.967Z,47.53
2023-04-14T13:16:16.917Z,47.32
2023-04-14T13:18:47.644Z,47.45
2023-04-14T13:21:15.264Z,47.46
2023-04-14T13:23:42.945Z,47.29
2023-04-14T13:26:10.815Z,47.44
2023-04-14T13:28:38.396Z,47.45
2023-04-14T13:31:06.887Z,47.43
2023-04-14T13:33:34.377Z,47.50
2023-04-14T13:36:02.946Z,47.39
2023-04-14T13:38:31.147Z,47.49
2023-04-14T13:40:58.599Z,47.46
2023-04-14T13:43:26.245Z,47.41
2023-04-14T13:45:57.665Z,47.27
2023-04-14T13:48:25.890Z,47.43
2023-04-14T13:50:54.310Z,47.31
2023-04-14T13:53:21.955Z,47.43
2023-04-14T13:55:49.241Z,47.29
2023-04-14T13:58:16.955Z,47.54
2023-04-14T14:00:44.201Z,47.42
2023-04-14T14:03:12.072Z,47.47
2023-04-14T14:05:39.546Z,47.40
2023-04-14T14:08:07.231Z,47.35
2023-04-14T14:10:34.591Z,47.43
2023-04-14T14:13:02.586Z,47.26
2023-04-14T14:15:30.115Z,47.26
2023-04-14T14:17:57.874Z,47.33
2023-04-14T14:20:25.220Z,47.17
2023-04-14T14:22:52.813Z,47.26
2023-04-14T14:25:21.421Z,47.39
2023-04-14T14:27:51.867Z,47.43
2023-04-14T14:30:19.222Z,47.30
2023-04-14T14:32:46.847Z,47.38
2023-04-14T14:35:14.605Z,47.25
2023-04-14T14:37:44.338Z,47.21
2023-04-14T14:40:12.197Z,47.28
2023-04-14T14:42:39.714Z,47.23
2023-04-14T14:45:09.144Z,47.32
2023-04-14T14:47:37.504Z,47.27
2023-04-14T14:50:07.863Z,47.22
2023-04-14T14:52:36.412Z,47.42
2023-04-14T14:55:04.678Z,47.36
2023-04-14T14:57:34.135Z,47.41
2023-04-14T15:00:01.377Z,47.28
2023-04-14T15:02:29.142Z,47.29
2023-04-14T15:04:56.619Z,47.24
2023-04-14T15:07:24.113Z,47.35
2023-04-14T15:09:51.374Z,47.24
2023-04-14T15:12:19.369Z,47.34
2023-04-14T15:14:46.661Z,47.24
2023-04-14T15:17:14.553Z,47.27
2023-04-14T15:19:42.641Z,47.33
2023-04-14T15:22:10.661Z,47.37
2023-04-14T15:24:37.979Z,47.26
2023-04-14T15:27:06.064Z,47.26
2023-04-14T15:29:33.379Z,47.19
2023-04-14T15:32:01.307Z,47.53
2023-04-14T15:34:29.456Z,47.37
2023-04-14T15:36:57.106Z,47.42
2023-04-14T15:39:24.525Z,47.34
2023-04-14T15:41:52.208Z,47.25
2023-04-14T15:44:19.506Z,47.29
2023-04-14T15:46:47.036Z,47.33
2023-04-14T15:49:14.258Z,47.27
2023-04-14T15:51:41.831Z,47.20
2023-04-14T15:54:09.056Z,47.08
2023-04-14T15:56:36.705Z,47.28
2023-04-14T15:59:03.990Z,47.13
2023-04-14T16:01:31.674Z,47.20
2023-04-14T16:03:59.107Z,47.28
2023-04-14T16:06:28.440Z,47.25
2023-04-14T16:08:56.402Z,47.19
2023-04-14T16:11:24.680Z,47.27
2023-04-14T16:13:52.689Z,47.20
2023-04-14T16:16:20.247Z,47.19
2023-04-14T16:18:48.649Z,46.99
2023-04-14T16:21:16.837Z,46.92
2023-04-14T16:23:44.658Z,46.92
2023-04-14T16:26:12.884Z,46.87
2023-04-14T16:28:40.369Z,47.16
2023-04-14T16:31:08.073Z,46.95
2023-04-14T16:33:35.398Z,47.00
2023-04-14T16:36:03.882Z,47.09
2023-04-14T16:38:31.707Z,47.26
2023-04-14T16:41:00.865Z,47.10
2023-04-14T16:43:34.742Z,47.08
2023-04-14T16:46:03.881Z,47.21
2023-04-14T16:48:32.426Z,47.29
2023-04-14T16:51:08.647Z,47.28
2023-04-14T16:53:39.971Z,47.20
2023-04-14T16:56:11.298Z,47.23
2023-04-14T16:58:39.853Z,47.24
2023-04-14T17:01:07.757Z,47.29
2023-04-14T17:03:35.678Z,47.27
2023-04-14T17:06:04.094Z,47.26
2023-04-14T17:08:31.531Z,47.28
2023-04-14T17:10:58.993Z,47.39
2023-04-14T17:13:27.567Z,47.19
2023-04-14T17:16:05.707Z,47.18
2023-04-14T17:18:36.517Z,47.14
2023-04-14T17:21:06.136Z,47.37
2023-04-14T17:23:37.716Z,47.32
2023-04-14T17:26:05.742Z,47.38
2023-04-14T17:28:34.819Z,47.29
2023-04-14T17:31:06.142Z,47.22
2023-04-14T17:33:33.475Z,47.50
2023-04-14T17:36:01.076Z,47.42
2023-04-14T17:38:28.330Z,47.41
2023-04-14T17:40:56.105Z,47.31
2023-04-14T17:43:23.494Z,47.16
2023-04-14T17:45:51.485Z,47.36
2023-04-14T17:48:20.732Z,47.45
2023-04-14T17:50:48.590Z,47.38
2023-04-14T17:53:17.694Z,47.44
2023-04-14T17:55:45.209Z,47.49
2023-04-14T17:58:12.528Z,47.39
2023-04-14T18:00:40.323Z,47.36
2023-04-14T18:03:07.651Z,47.47
2023-04-14T18:05:35.631Z,47.33
2023-04-14T18:08:03.262Z,47.47
2023-04-14T18:10:31.052Z,47.35
2023-04-14T18:12:58.584Z,47.25
2023-04-14T18:15:26.466Z,47.35
2023-04-14T18:17:53.828Z,47.33
2023-04-14T18:20:25.077Z,47.54
2023-04-14T18:22:57.647Z,47.44
2023-04-14T18:25:25.263Z,47.54
2023-04-14T18:30:23.277Z,47.28
2023-04-14T18:32:50.824Z,47.33
2023-04-14T18:35:18.379Z,47.40
2023-04-14T18:37:46.472Z,47.45
2023-04-14T18:40:14.310Z,47.43
2023-04-14T18:42:41.901Z,47.34
2023-04-14T18:45:09.910Z,47.50
2023-04-14T18:47:37.319Z,47.50
2023-04-14T18:50:05.353Z,47.26
2023-04-14T18:52:32.770Z,47.19
2023-04-14T18:55:00.784Z,47.54
2023-04-14T18:57:29.123Z,47.49
2023-04-14T18:59:56.870Z,47.44
2023-04-14T19:02:24.327Z,47.40
2023-04-14T19:04:52.555Z,47.41
2023-04-14T19:07:20.207Z,47.38
2023-04-14T19:09:47.881Z,47.45
2023-04-14T19:12:27.240Z,47.28
2023-04-14T19:14:56.193Z,47.26
2023-04-14T19:17:23.911Z,47.29
2023-04-14T19:19:52.153Z,47.37
2023-04-14T19:22:20.112Z,47.44
2023-04-14T19:24:47.940Z,47.35
2023-04-14T19:27:15.911Z,47.32
2023-04-14T19:29:44.098Z,47.37
2023-04-14T19:32:11.474Z,47.21
2023-04-14T19:34:39.105Z,47.21
2023-04-14T19:37:06.380Z,47.31
2023-04-14T19:39:34.356Z,47.18
2023-04-14T19:42:03.312Z,47.28
2023-04-14T19:44:31.022Z,47.20
2023-04-14T19:46:58.416Z,47.42
2023-04-14T19:49:26.998Z,47.42
2023-04-14T19:51:54.408Z,47.43
2023-04-14T19:54:22.000Z,47.46
2023-04-14T19:56:49.303Z,47.50
2023-04-14T19:59:16.870Z,47.52
2023-04-14T20:01:45.390Z,47.57
2023-04-14T20:04:13.975Z,47.50
2023-04-14T20:06:42.814Z,47.37
2023-04-14T20:09:10.332Z,47.42
2023-04-14T20:11:37.719Z,47.28
2023-04-14T20:14:05.303Z,47.28
2023-04-14T20:16:32.704Z,47.42
2023-04-14T20:19:00.862Z,47.41
2023-04-14T20:21:29.450Z,47.33
2023-04-14T20:23:57.644Z,47.24
2023-04-14T20:26:24.937Z,47.37
2023-04-14T20:28:52.487Z,47.31
2023-04-14T20:31:20.005Z,47.41
2023-04-14T20:33:48.418Z,47.27
2023-04-14T20:36:16.218Z,47.39
2023-04-14T20:38:43.933Z,47.52
2023-04-14T20:41:12.156Z,47.51
2023-04-14T20:43:39.627Z,47.47
2023-04-14T20:46:06.925Z,47.38
2023-04-14T20:48:35.149Z,47.54
2023-04-14T20:51:02.451Z,47.31
2023-04-14T20:53:30.117Z,47.35
2023-04-14T20:55:57.735Z,47.63
2023-04-14T20:58:25.495Z,47.50
2023-04-14T21:00:53.155Z,47.46
2023-04-14T21:03:21.171Z,47.45
2023-04-14T21:05:48.520Z,47.41
2023-04-14T21:08:17.857Z,47.50
2023-04-14T21:11:14.276Z,47.63
2023-04-14T21:15:40.067Z,47.44
2023-04-14T21:16:19.890Z,47.46
2023-04-14T21:18:47.418Z,47.48
2023-04-14T21:21:14.754Z,47.50
2023-04-14T21:23:42.294Z,47.46
2023-04-14T21:26:09.690Z,47.55
2023-04-14T21:28:38.090Z,47.54
2023-04-14T21:31:06.588Z,47.57
2023-04-14T21:33:34.193Z,47.46
2023-04-14T21:36:01.866Z,47.58
2023-04-14T21:38:29.444Z,47.52
2023-04-14T21:40:57.637Z,47.55
2023-04-14T21:43:25.166Z,47.49
2023-04-14T21:45:52.836Z,47.50
2023-04-14T21:48:20.710Z,47.71
2023-04-14T21:50:48.120Z,47.50
2023-04-14T21:53:16.583Z,47.57
2023-04-14T21:55:43.906Z,47.42
2023-04-14T21:58:11.382Z,47.52
2023-04-14T22:00:38.676Z,47.64
2023-04-14T22:03:06.499Z,47.56
2023-04-14T22:05:33.887Z,47.68
2023-04-14T22:08:01.391Z,47.62
2023-04-14T22:10:32.178Z,47.65
2023-04-14T22:13:00.690Z,47.67
2023-04-14T22:15:28.014Z,47.46
2023-04-14T22:17:55.866Z,47.53
2023-04-14T22:20:24.135Z,47.68
2023-04-14T22:22:52.271Z,47.66
2023-04-14T22:25:19.572Z,47.70
2023-04-14T22:27:47.060Z,47.61
2023-04-14T22:30:14.763Z,47.72
2023-04-14T22:32:42.331Z,47.71
2023-04-14T22:35:09.692Z,47.76
2023-04-14T22:37:37.236Z,47.69
2023-04-14T22:40:06.026Z,47.66
2023-04-14T22:42:33.511Z,47.61
2023-04-14T22:45:01.508Z,47.55
2023-04-14T22:47:29.117Z,47.64
2023-04-14T22:49:56.407Z,47.82
2023-04-14T22:52:24.123Z,47.52
2023-04-14T22:54:51.638Z,47.66
2023-04-14T22:57:19.627Z,47.76
2023-04-14T22:59:47.510Z,47.77
2023-04-14T23:02:15.111Z,47.66
2023-04-14T23:04:42.651Z,47.84
2023-04-14T23:07:10.581Z,47.63
2023-04-14T23:09:37.874Z,47.78
2023-04-14T23:12:06.222Z,47.64
2023-04-14T23:14:33.493Z,47.78
2023-04-14T23:17:00.988Z,47.68
2023-04-14T23:19:28.332Z,47.68
2023-04-14T23:21:56.866Z,47.76
2023-04-14T23:24:24.189Z,47.78
2023-04-14T23:26:51.856Z,47.80
2023-04-14T23:29:19.071Z,47.79
2023-04-14T23:31:47.305Z,47.77
2023-04-14T23:34:14.615Z,47.82
2023-04-14T23:36:42.456Z,47.86
2023-04-14T23:39:10.094Z,47.87
2023-04-14T23:41:37.605Z,47.80
2023-04-14T23:44:04.995Z,47.72
2023-04-14T23:46:32.674Z,47.88
2023-04-14T23:49:10.422Z,47.82
2023-04-14T23:51:47.772Z,47.80
2023-04-14T23:54:15.412Z,47.80
2023-04-14T23:56:42.943Z,47.95
2023-04-14T23:59:10.265Z,47.77
